Time;durP1;ratioP1;P1;durP2;ratioP2;P2;SDS_P1;SDS_P2;PMS_P1;PMS_P2;Temp;Humidity;BMP_temperature;BMP_pressure;BME280_temperature;BME280_humidity;BME280_pressure;Samples;Min_cycle;Max_cycle;Signal;HPM_P1;HPM_P2
2023/09/19 00:00:08;;;;;;;8.80;7.90;;;;;;;16.54;75.26;100706.55;88575;281;136954;-67
2023/09/19 00:02:11;;;;;;;10.50;9.50;;;;;;;16.54;75.07;100707.14;88559;273;22541;-67
2023/09/19 00:04:14;;;;;;;8.80;8.00;;;;;;;16.53;75.42;100704.08;88475;274;138708;-67
2023/09/19 00:06:16;;;;;;;10.40;9.30;;;;;;;16.48;75.66;100706.02;88688;277;22540;-63
2023/09/19 00:08:23;;;;;;;11.70;9.20;;;;;;;16.44;75.50;100713.23;88476;274;136304;-65
2023/09/19 00:10:26;;;;;;;9.60;8.60;;;;;;;16.41;75.23;100717.27;88555;274;25093;-68
2023/09/19 00:12:28;;;;;;;9.30;8.50;;;;;;;16.39;75.37;100714.98;88464;274;137365;-65
2023/09/19 00:14:34;;;;;;;10.40;8.50;;;;;;;16.40;75.21;100718.36;88500;275;22523;-67
2023/09/19 00:16:36;;;;;;;13.90;9.00;;;;;;;16.39;75.24;100716.58;88647;278;136283;-67
2023/09/19 00:18:38;;;;;;;9.80;8.80;;;;;;;16.39;75.19;100714.44;88564;281;25355;-65
2023/09/19 00:20:41;;;;;;;10.20;8.80;;;;;;;16.39;75.03;100717.70;88514;274;135928;-67
2023/09/19 00:22:44;;;;;;;14.70;9.70;;;;;;;16.32;74.94;100707.15;88628;283;24040;-65
2023/09/19 00:24:47;;;;;;;10.20;9.20;;;;;;;16.41;74.84;100716.59;88616;279;137367;-66
2023/09/19 00:26:48;;;;;;;10.60;8.60;;;;;;;16.33;74.88;100704.05;88704;282;22548;-65
2023/09/19 00:28:53;;;;;;;10.10;9.10;;;;;;;16.41;74.81;100715.89;88379;280;136162;-66
2023/09/19 00:30:55;;;;;;;11.40;9.70;;;;;;;16.41;74.77;100714.22;88907;274;22529;-66
2023/09/19 00:32:58;;;;;;;9.50;8.60;;;;;;;16.40;74.79;100713.60;88710;279;137701;-64
2023/09/19 00:35:03;;;;;;;10.50;9.40;;;;;;;16.40;74.67;100713.52;88740;275;25223;-67
2023/09/19 00:37:04;;;;;;;10.20;8.80;;;;;;;16.39;74.56;100712.45;88656;280;137823;-65
2023/09/19 00:39:08;;;;;;;13.00;8.40;;;;;;;16.40;74.56;100709.38;88643;275;22530;-66
2023/09/19 00:41:12;;;;;;;10.90;9.80;;;;;;;16.39;74.65;100709.34;88686;280;136012;-63
2023/09/19 00:43:14;;;;;;;12.00;8.70;;;;;;;16.38;74.74;100707.55;89364;278;25557;-63
2023/09/19 00:45:18;;;;;;;11.20;9.10;;;;;;;16.37;74.76;100709.20;88976;279;136026;-65
2023/09/19 00:47:20;;;;;;;11.80;9.30;;;;;;;16.37;74.80;100707.05;88800;281;22537;-65
2023/09/19 00:49:22;;;;;;;10.60;9.10;;;;;;;16.35;74.75;100706.89;88603;281;135971;-64
2023/09/19 00:51:27;;;;;;;15.60;9.70;;;;;;;16.34;75.10;100709.02;88686;283;25095;-65
2023/09/19 00:53:31;;;;;;;11.10;9.20;;;;;;;16.34;75.01;100705.98;88503;282;135448;-67
2023/09/19 00:55:34;;;;;;;9.60;8.70;;;;;;;16.35;75.22;100709.09;88793;281;22528;-66
2023/09/19 00:57:40;;;;;;;10.20;9.30;;;;;;;16.34;75.32;100707.92;88569;282;135754;-66
2023/09/19 00:59:44;;;;;;;10.60;9.50;;;;;;;16.36;75.13;100709.38;88576;278;25169;-67
2023/09/19 01:01:46;;;;;;;9.60;8.40;;;;;;;16.37;74.95;100704.69;88464;273;137049;-65
2023/09/19 01:03:48;;;;;;;9.70;8.70;;;;;;;16.39;74.73;100704.45;88459;282;25160;-68
2023/09/19 01:05:50;;;;;;;10.00;9.10;;;;;;;16.39;74.94;100711.09;88763;281;136625;-60
2023/09/19 01:07:53;;;;;;;10.00;8.90;;;;;;;16.37;75.11;100706.19;88737;284;22719;-62
2023/09/19 01:09:58;;;;;;;9.60;8.70;;;;;;;16.35;74.98;100704.78;88627;281;137144;-64
2023/09/19 01:12:05;;;;;;;9.60;8.40;;;;;;;16.33;75.08;100706.36;88641;275;22537;-64
2023/09/19 01:14:34;;;;;;;10.30;9.00;;;;;;;16.31;75.12;100707.75;88686;273;23027;-65
2023/09/19 01:16:46;;;;;;;11.00;8.30;;;;;;;16.29;75.11;100704.45;88716;281;137485;-63
2023/09/19 01:19:38;;;;;;;12.30;9.10;;;;;;;16.25;75.20;100702.79;88659;274;25118;-65
2023/09/19 01:22:17;;;;;;;9.20;8.30;;;;;;;16.21;75.48;100704.17;88351;282;137343;-65
2023/09/19 01:24:35;;;;;;;12.20;9.60;;;;;;;16.13;76.14;100701.79;88508;281;136342;-65
2023/09/19 01:26:55;;;;;;;10.00;9.00;;;;;;;16.06;76.62;100704.00;88628;279;22571;-65
2023/09/19 01:29:21;;;;;;;9.60;8.60;;;;;;;16.03;77.39;100706.10;88570;277;137127;-64
2023/09/19 01:31:25;;;;;;;9.30;8.30;;;;;;;15.99;77.70;100708.92;88664;280;25233;-65
2023/09/19 01:33:27;;;;;;;9.00;8.10;;;;;;;15.93;77.73;100706.19;88517;280;136457;-66
2023/09/19 01:35:29;;;;;;;9.40;8.50;;;;;;;15.88;78.34;100706.58;88688;277;24199;-65
2023/09/19 01:37:31;;;;;;;9.20;8.40;;;;;;;15.81;78.87;100702.20;88522;277;136209;-64
2023/09/19 01:39:33;;;;;;;9.50;8.50;;;;;;;15.77;79.37;100706.15;88696;280;25080;-64
2023/09/19 01:41:46;;;;;;;9.30;8.40;;;;;;;15.70;79.50;100700.73;88564;280;138246;-63
2023/09/19 01:43:50;;;;;;;9.00;8.20;;;;;;;15.64;79.99;100704.09;88534;274;22567;-66
2023/09/19 01:46:08;;;;;;;12.20;8.90;;;;;;;15.59;80.00;100701.73;88385;275;136083;-63
2023/09/19 01:48:26;;;;;;;11.00;9.40;;;;;;;15.54;80.31;100701.74;88546;281;136821;-62
2023/09/19 01:50:40;;;;;;;10.00;9.00;;;;;;;15.51;80.46;100702.58;88774;278;22527;-64
2023/09/19 01:53:00;;;;;;;15.20;8.90;;;;;;;15.50;80.19;100701.20;88500;273;136958;-64
2023/09/19 01:55:09;;;;;;;9.40;8.50;;;;;;;15.56;79.79;100698.95;88488;282;23863;-62
2023/09/19 01:57:22;;;;;;;11.40;8.80;;;;;;;15.62;79.56;100694.52;88595;273;136780;-64
2023/09/19 01:59:35;;;;;;;9.90;8.50;;;;;;;15.69;79.13;100694.15;88617;274;22603;-66
2023/09/19 02:01:37;;;;;;;9.20;8.30;;;;;;;15.75;78.86;100690.65;88401;274;136672;-64
2023/09/19 02:03:40;;;;;;;10.10;9.20;;;;;;;15.78;78.62;100695.46;91374;281;22340;-66
2023/09/19 02:05:50;;;;;;;8.90;8.10;;;;;;;15.80;78.33;100690.00;90866;281;136616;-65
2023/09/19 02:07:53;;;;;;;11.20;9.40;;;;;;;15.81;78.22;100691.23;88591;282;22532;-65
2023/09/19 02:09:55;;;;;;;9.40;8.60;;;;;;;15.82;78.24;100689.20;88503;274;136446;-64
2023/09/19 02:11:57;;;;;;;12.20;9.70;;;;;;;15.82;78.27;100687.59;88618;282;24327;-64
2023/09/19 02:13:59;;;;;;;14.30;9.10;;;;;;;15.80;78.30;100686.31;88559;274;137435;-65
2023/09/19 02:16:02;;;;;;;11.10;10.00;;;;;;;15.79;78.39;100679.34;88685;279;22530;-64
2023/09/19 02:18:05;;;;;;;11.30;9.10;;;;;;;15.78;78.26;100678.80;88663;274;22542;-62
2023/09/19 02:20:10;;;;;;;12.10;8.90;;;;;;;15.76;78.63;100677.61;88427;273;137387;-62
2023/09/19 02:22:11;;;;;;;10.40;9.10;;;;;;;15.77;78.31;100675.45;91329;281;22349;-62
2023/09/19 02:24:15;;;;;;;10.70;9.20;;;;;;;15.78;78.42;100677.56;91277;282;137011;-62
2023/09/19 02:26:18;;;;;;;12.50;8.60;;;;;;;15.78;78.40;100676.28;91411;281;22244;-61
2023/09/19 02:28:22;;;;;;;10.20;8.80;;;;;;;15.75;78.29;100673.44;91305;280;136968;-62
2023/09/19 02:30:25;;;;;;;10.50;8.60;;;;;;;15.74;78.31;100669.60;91155;280;22555;-59
2023/09/19 02:32:27;;;;;;;10.00;9.10;;;;;;;15.75;78.64;100670.89;88465;273;136368;-62
2023/09/19 02:34:31;;;;;;;10.40;9.30;;;;;;;15.65;78.53;100657.60;88542;273;22530;-61
2023/09/19 02:36:32;;;;;;;11.90;10.10;;;;;;;15.68;78.93;100669.23;88556;281;136355;-61
2023/09/19 02:38:34;;;;;;;9.70;8.90;;;;;;;15.64;78.94;100668.08;88537;281;22534;-61
2023/09/19 02:40:36;;;;;;;9.60;8.60;;;;;;;15.62;78.96;100670.75;88387;274;137872;-61
2023/09/19 02:42:38;;;;;;;10.00;9.00;;;;;;;15.61;79.02;100669.42;88635;274;22527;-60
2023/09/19 02:44:40;;;;;;;10.60;9.50;;;;;;;15.61;79.36;100665.46;88429;277;137396;-60
2023/09/19 02:46:42;;;;;;;9.20;8.30;;;;;;;15.61;79.56;100665.33;88529;281;23861;-60
2023/09/19 02:48:44;;;;;;;10.30;9.30;;;;;;;15.61;79.70;100660.05;88360;282;137960;-60
2023/09/19 02:50:50;;;;;;;9.50;8.60;;;;;;;15.59;79.71;100655.21;88486;281;22622;-62
2023/09/19 02:52:51;;;;;;;10.40;9.40;;;;;;;15.55;79.84;100655.84;88393;274;136131;-61
2023/09/19 02:54:53;;;;;;;12.20;9.90;;;;;;;15.52;79.99;100653.14;88542;275;24036;-62
2023/09/19 02:56:55;;;;;;;11.70;9.00;;;;;;;15.48;80.23;100652.73;88449;282;136219;-63
2023/09/19 02:58:57;;;;;;;10.80;9.80;;;;;;;15.45;80.75;100655.23;88477;274;22596;-60
2023/09/19 03:00:59;;;;;;;11.30;10.00;;;;;;;15.40;80.90;100649.21;88488;274;137794;-61
2023/09/19 03:03:02;;;;;;;13.00;10.00;;;;;;;15.36;81.18;100651.99;88447;273;22836;-61
2023/09/19 03:05:06;;;;;;;10.00;8.50;;;;;;;15.37;80.93;100646.58;88459;278;137314;-61
2023/09/19 03:07:11;;;;;;;10.10;9.20;;;;;;;15.37;81.13;100644.17;88960;278;23739;-61
2023/09/19 03:09:13;;;;;;;9.40;8.60;;;;;;;15.38;80.91;100642.90;88484;278;137038;-61
2023/09/19 03:11:18;;;;;;;10.70;9.10;;;;;;;15.37;80.67;100641.92;88623;281;22720;-61
2023/09/19 03:13:25;;;;;;;11.00;9.50;;;;;;;15.37;80.46;100641.95;88510;274;137489;-61
2023/09/19 03:15:27;;;;;;;13.60;9.50;;;;;;;15.34;80.40;100640.61;88552;282;22572;-60
2023/09/19 03:17:29;;;;;;;10.90;9.80;;;;;;;15.31;80.42;100641.73;88392;274;136495;-60
2023/09/19 03:19:33;;;;;;;10.60;9.00;;;;;;;15.28;80.60;100642.32;88569;281;22542;-60
2023/09/19 03:21:35;;;;;;;9.80;8.90;;;;;;;15.26;80.40;100642.09;88515;281;137842;-60
2023/09/19 03:23:38;;;;;;;12.00;10.10;;;;;;;15.18;80.54;100633.34;88568;275;22565;-60
2023/09/19 03:25:40;;;;;;;10.50;9.00;;;;;;;15.23;80.28;100637.04;88526;274;136994;-61
2023/09/19 03:27:42;;;;;;;10.80;9.70;;;;;;;15.26;80.00;100640.48;88569;274;23715;-60
2023/09/19 03:29:44;;;;;;;10.40;9.40;;;;;;;15.27;79.67;100633.64;88467;282;137308;-59
2023/09/19 03:31:49;;;;;;;;;;;;;;;15.28;79.36;100636.25;88509;274;23702;-60
2023/09/19 03:33:51;;;;;;;11.50;8.90;;;;;;;15.26;79.39;100635.39;88536;277;124642;-61
2023/09/19 03:35:53;;;;;;;9.90;9.10;;;;;;;15.23;79.53;100633.86;88422;282;25111;-62
2023/09/19 03:37:57;;;;;;;9.80;8.50;;;;;;;15.22;79.62;100639.77;88494;281;136136;-61
2023/09/19 03:40:04;;;;;;;12.40;9.80;;;;;;;15.21;79.47;100639.59;88609;274;22617;-60
2023/09/19 03:42:07;;;;;;;10.30;9.30;;;;;;;15.18;79.50;100639.00;88446;275;22543;-60
2023/09/19 03:44:10;;;;;;;10.20;9.20;;;;;;;15.17;79.54;100643.66;88413;281;136584;-62
2023/09/19 03:46:14;;;;;;;11.60;9.40;;;;;;;15.15;79.29;100639.96;88448;275;22537;-60
2023/09/19 03:48:17;;;;;;;10.10;9.10;;;;;;;15.16;79.37;100638.02;88286;282;137416;-61
2023/09/19 03:50:19;;;;;;;15.10;10.00;;;;;;;15.18;79.23;100635.90;88615;281;24170;-62
2023/09/19 03:52:21;;;;;;;11.30;10.30;;;;;;;15.21;79.04;100637.92;88541;274;138763;-61
2023/09/19 03:54:22;;;;;;;13.00;9.60;;;;;;;15.22;78.83;100634.70;88512;273;22542;-61
2023/09/19 03:56:25;;;;;;;10.30;9.10;;;;;;;15.24;78.66;100634.77;88424;280;136803;-60
2023/09/19 03:58:26;;;;;;;12.20;9.90;;;;;;;15.24;78.51;100630.10;88536;274;22559;-60
2023/09/19 04:00:29;;;;;;;10.60;9.20;;;;;;;15.25;78.38;100632.38;88445;282;136607;-60
2023/09/19 04:02:33;;;;;;;10.70;9.40;;;;;;;15.26;78.28;100636.02;88432;273;22517;-61
2023/09/19 04:04:35;;;;;;;10.30;9.30;;;;;;;15.28;78.11;100629.92;88366;277;136499;-60
2023/09/19 04:06:37;;;;;;;10.90;9.90;;;;;;;15.32;78.06;100630.73;88407;279;25105;-61
2023/09/19 04:08:39;;;;;;;11.40;9.80;;;;;;;15.43;77.79;100629.61;88556;274;136580;-60
2023/09/19 04:10:43;;;;;;;10.70;9.70;;;;;;;15.62;76.89;100628.63;88341;279;22618;-60
2023/09/19 04:12:53;;;;;;;10.70;9.70;;;;;;;15.87;75.94;100626.33;88437;273;136479;-62
2023/09/19 04:14:54;;;;;;;12.90;8.30;;;;;;;16.15;74.49;100628.08;88923;277;22534;-61
2023/09/19 04:16:56;;;;;;;10.40;8.90;;;;;;;16.41;73.00;100626.47;88221;282;136096;-60
2023/09/19 04:18:59;;;;;;;10.20;9.30;;;;;;;16.68;72.19;100621.81;88235;275;25093;-61
2023/09/19 04:21:03;;;;;;;12.20;9.40;;;;;;;16.96;70.83;100618.61;88315;281;136499;-61
2023/09/19 04:23:05;;;;;;;9.20;8.40;;;;;;;17.24;69.04;100624.76;88518;273;24055;-61
2023/09/19 04:25:07;;;;;;;10.90;8.20;;;;;;;17.45;68.09;100624.55;88267;274;136935;-60
2023/09/19 04:27:09;;;;;;;13.70;9.40;;;;;;;17.64;66.98;100618.52;88488;274;22560;-62
2023/09/19 04:29:13;;;;;;;13.20;9.10;;;;;;;17.80;66.02;100621.13;88392;275;136566;-61
2023/09/19 04:31:16;;;;;;;11.30;8.20;;;;;;;17.95;65.57;100620.78;88895;273;24192;-62
2023/09/19 04:33:18;;;;;;;9.30;8.30;;;;;;;18.11;64.81;100621.25;89796;280;138934;-60
2023/09/19 04:35:21;;;;;;;10.70;7.80;;;;;;;18.30;63.97;100616.22;88532;274;26267;-62
2023/09/19 04:37:24;;;;;;;8.60;7.80;;;;;;;18.46;63.22;100605.11;88608;273;138265;-63
2023/09/19 04:39:27;;;;;;;8.30;7.60;;;;;;;18.77;62.00;100622.06;88604;280;22872;-63
2023/09/19 04:41:29;;;;;;;8.90;8.00;;;;;;;18.98;61.25;100622.23;89554;273;137441;-64
2023/09/19 04:43:31;;;;;;;15.20;8.10;;;;;;;19.19;60.62;100620.24;88482;277;22592;-63
2023/09/19 04:45:33;;;;;;;14.00;7.90;;;;;;;19.35;59.68;100608.79;88408;273;136527;-66
2023/09/19 04:47:38;;;;;;;9.30;8.10;;;;;;;19.65;58.54;100617.04;88424;274;24057;-64
2023/09/19 04:49:41;;;;;;;8.40;7.60;;;;;;;19.91;57.94;100611.86;88438;274;135848;-64
2023/09/19 04:51:42;;;;;;;7.60;7.00;;;;;;;20.15;56.88;100612.76;88314;273;25232;-63
2023/09/19 04:53:44;;;;;;;9.50;7.70;;;;;;;20.39;55.81;100606.69;88204;277;137553;-65
2023/09/19 04:55:51;;;;;;;11.30;7.50;;;;;;;20.68;54.99;100602.83;88361;273;22628;-64
2023/09/19 04:57:53;;;;;;;7.40;6.70;;;;;;;20.96;53.57;100602.38;91221;277;136168;-63
2023/09/19 04:59:55;;;;;;;8.20;7.50;;;;;;;21.00;52.71;100594.64;91261;280;22192;-63
2023/09/19 05:01:57;;;;;;;8.00;7.00;;;;;;;21.08;52.89;100601.84;91249;280;137469;-65
2023/09/19 05:03:58;;;;;;;7.70;7.00;;;;;;;21.17;52.40;100600.61;91371;280;22395;-65
2023/09/19 05:06:00;;;;;;;7.40;6.70;;;;;;;21.35;52.44;100600.43;91247;280;136980;-63
2023/09/19 05:08:05;;;;;;;11.90;8.00;;;;;;;21.68;51.53;100597.13;91314;280;23010;-66
2023/09/19 05:10:07;;;;;;;7.60;6.90;;;;;;;22.04;50.05;100594.21;91287;280;22300;-65
2023/09/19 05:12:10;;;;;;;9.10;7.10;;;;;;;22.22;49.00;100593.98;90375;280;136490;-64
2023/09/19 05:14:12;;;;;;;6.90;6.30;;;;;;;22.19;48.78;100599.38;88444;274;22547;-63
2023/09/19 05:16:14;;;;;;;7.80;6.80;;;;;;;22.14;48.95;100595.10;88462;274;138089;-68
2023/09/19 05:18:16;;;;;;;11.00;6.50;;;;;;;22.11;48.72;100594.65;88578;280;24092;-67
2023/09/19 05:20:30;;;;;;;7.20;6.20;;;;;;;22.07;48.85;100596.67;88452;280;136704;-62
2023/09/19 05:22:32;;;;;;;8.20;7.00;;;;;;;22.02;48.82;100594.95;88573;277;23937;-64
2023/09/19 05:24:34;;;;;;;11.00;6.40;;;;;;;22.03;48.91;100592.02;88479;273;136509;-63
2023/09/19 05:26:37;;;;;;;10.50;6.30;;;;;;;22.07;48.86;100588.73;88507;273;24245;-64
2023/09/19 05:28:39;;;;;;;10.90;6.50;;;;;;;22.21;48.59;100590.23;88376;277;136556;-65
2023/09/19 05:30:43;;;;;;;6.30;5.80;;;;;;;22.41;48.39;100587.73;88385;281;22523;-64
2023/09/19 05:32:49;;;;;;;8.30;6.20;;;;;;;22.56;47.55;100590.34;88521;277;136456;-64
2023/09/19 05:34:53;;;;;;;7.10;6.40;;;;;;;22.57;47.12;100590.77;88661;273;22550;-66
2023/09/19 05:36:55;;;;;;;10.30;6.70;;;;;;;22.59;47.26;100588.39;88410;280;136129;-65
2023/09/19 05:38:57;;;;;;;10.70;6.60;;;;;;;22.71;47.20;100592.33;88504;280;25194;-71
2023/09/19 05:40:59;;;;;;;7.10;6.40;;;;;;;22.92;47.03;100595.30;88428;277;136576;-70
2023/09/19 05:43:03;;;;;;;6.40;5.80;;;;;;;23.05;46.08;100594.46;88754;273;25080;-70
2023/09/19 05:45:06;;;;;;;6.30;5.70;;;;;;;22.99;46.19;100600.94;88375;273;136234;-72
2023/09/19 05:47:08;;;;;;;6.90;6.20;;;;;;;22.88;46.34;100604.95;88578;273;23038;-70
2023/09/19 05:49:11;;;;;;;6.60;6.00;;;;;;;22.83;46.44;100605.38;88409;279;136074;-73
2023/09/19 05:51:12;;;;;;;6.80;6.30;;;;;;;22.85;46.55;100603.00;88570;273;24278;-74
2023/09/19 05:53:15;;;;;;;6.20;5.60;;;;;;;22.97;46.45;100609.64;88453;277;136351;-72
2023/09/19 05:55:17;;;;;;;8.20;6.20;;;;;;;23.09;46.02;100609.06;88669;281;23495;-71
2023/09/19 05:57:18;;;;;;;8.70;6.90;;;;;;;23.17;45.98;100608.77;88395;277;136394;-72
2023/09/19 05:59:20;;;;;;;6.20;5.70;;;;;;;23.22;45.53;100607.33;88500;280;25080;-69
2023/09/19 06:01:22;;;;;;;8.60;6.80;;;;;;;23.23;45.53;100605.92;88462;273;136301;-72
2023/09/19 06:03:24;;;;;;;6.50;5.90;;;;;;;23.15;45.69;100610.29;88576;273;23614;-71
2023/09/19 06:05:27;;;;;;;6.90;6.20;;;;;;;22.96;46.28;100607.02;88409;280;136176;-70
2023/09/19 06:07:36;;;;;;;7.40;6.70;;;;;;;22.86;46.48;100604.34;88692;274;26186;-73
2023/09/19 06:09:38;;;;;;;11.30;7.00;;;;;;;22.87;46.58;100607.09;88338;279;136113;-71
2023/09/19 06:11:43;;;;;;;7.00;5.60;;;;;;;22.92;46.89;100603.85;88592;274;24097;-72
2023/09/19 06:13:47;;;;;;;6.30;5.60;;;;;;;23.04;46.72;100603.66;88338;275;136267;-72
2023/09/19 06:15:49;;;;;;;6.30;5.80;;;;;;;23.18;46.63;100602.20;88877;274;22530;-72
2023/09/19 06:17:56;;;;;;;6.80;6.20;;;;;;;23.30;46.18;100601.54;88430;281;138166;-71
2023/09/19 06:19:59;;;;;;;6.50;6.00;;;;;;;23.46;46.22;100602.40;88594;281;22595;-68
2023/09/19 06:22:01;;;;;;;7.10;6.40;;;;;;;23.67;46.22;100603.42;88420;274;136056;-72
2023/09/19 06:24:03;;;;;;;6.80;6.20;;;;;;;23.81;46.12;100605.98;87927;277;553298;-70
2023/09/19 06:26:06;;;;;;;8.50;6.60;;;;;;;23.86;45.74;100604.46;88537;280;22527;-70
2023/09/19 06:28:11;;;;;;;9.30;7.20;;;;;;;23.84;45.80;100605.88;88509;277;136444;-71
2023/09/19 06:30:14;;;;;;;6.50;6.00;;;;;;;23.82;45.71;100604.79;88593;273;22527;-72
2023/09/19 06:32:16;;;;;;;6.50;6.10;;;;;;;23.78;46.35;100605.64;88506;273;137484;-70
2023/09/19 06:34:18;;;;;;;6.90;6.40;;;;;;;23.76;46.45;100606.34;88554;278;22534;-72
2023/09/19 06:36:20;;;;;;;7.90;6.40;;;;;;;23.55;47.10;100603.95;88598;273;136558;-71
2023/09/19 06:38:22;;;;;;;6.80;6.10;;;;;;;23.17;47.76;100604.75;88593;280;22558;-72
2023/09/19 06:40:24;;;;;;;7.40;6.70;;;;;;;22.70;49.22;100605.03;88403;273;136322;-70
2023/09/19 06:42:28;;;;;;;6.70;6.20;;;;;;;22.20;50.59;100605.05;88641;277;25086;-70
2023/09/19 06:44:31;;;;;;;14.70;7.10;;;;;;;21.75;52.27;100606.10;88587;280;136132;-69
2023/09/19 06:46:34;;;;;;;10.20;7.00;;;;;;;21.47;53.44;100605.02;88696;274;22549;-70
2023/09/19 06:48:36;;;;;;;7.80;7.00;;;;;;;21.19;54.82;100604.95;88502;273;136314;-67
2023/09/19 06:50:41;;;;;;;7.60;7.00;;;;;;;20.97;55.45;100596.95;88441;280;22886;-68
2023/09/19 06:52:43;;;;;;;;;;;;;;;20.83;56.59;100599.89;88485;277;137411;-65
2023/09/19 06:54:45;;;;;;;7.90;6.60;;;;;;;20.64;57.17;100588.46;88516;277;22545;-67
2023/09/19 06:56:47;;;;;;;9.10;6.70;;;;;;;20.60;57.18;100598.78;88341;279;136100;-70
2023/09/19 06:58:48;;;;;;;7.00;6.30;;;;;;;20.51;56.97;100602.70;88662;273;25135;-70
2023/09/19 07:00:50;;;;;;;6.80;6.20;;;;;;;20.44;57.30;100597.95;88272;274;136374;-69
2023/09/19 07:03:04;;;;;;;6.70;6.10;;;;;;;20.40;57.21;100600.44;88463;275;22559;-69
2023/09/19 07:05:07;;;;;;;7.10;6.30;;;;;;;20.37;57.41;100600.93;88622;274;136866;-70
2023/09/19 07:07:10;;;;;;;6.50;5.50;;;;;;;20.35;56.93;100606.58;88494;273;23828;-70
2023/09/19 07:09:12;;;;;;;6.00;5.60;;;;;;;20.33;56.73;100602.66;88576;273;136318;-71
2023/09/19 07:11:15;;;;;;;5.90;5.30;;;;;;;20.24;57.03;100592.17;88488;273;24095;-69
2023/09/19 07:13:17;;;;;;;7.70;6.40;;;;;;;20.32;57.19;100597.82;88844;275;136115;-74
2023/09/19 07:15:21;;;;;;;9.00;6.60;;;;;;;20.40;56.64;100604.05;88407;280;25080;-71
2023/09/19 07:17:23;;;;;;;6.20;5.70;;;;;;;20.46;56.13;100604.79;88367;281;135958;-70
2023/09/19 07:19:29;;;;;;;6.50;5.60;;;;;;;20.45;56.08;100604.73;88560;273;22534;-71
2023/09/19 07:21:32;;;;;;;5.30;4.90;;;;;;;20.44;56.34;100600.60;88601;281;136010;-70
2023/09/19 07:23:34;;;;;;;7.00;6.30;;;;;;;20.46;56.62;100602.31;88734;273;22537;-71
2023/09/19 07:25:36;;;;;;;6.20;5.00;;;;;;;20.49;56.65;100595.85;88748;282;135970;-71
2023/09/19 07:27:38;;;;;;;8.50;6.10;;;;;;;20.54;56.72;100600.75;88610;280;22588;-72
2023/09/19 07:29:40;;;;;;;5.40;5.00;;;;;;;20.58;56.30;100602.54;88719;273;136228;-69
2023/09/19 07:31:42;;;;;;;6.70;6.10;;;;;;;20.55;56.49;100600.81;88946;279;22803;-69
2023/09/19 07:33:44;;;;;;;7.60;5.30;;;;;;;20.51;56.83;100599.09;89127;281;136166;-71
2023/09/19 07:35:47;;;;;;;6.00;5.00;;;;;;;20.50;57.26;100594.58;89353;274;22517;-70
2023/09/19 07:37:50;;;;;;;5.90;5.40;;;;;;;20.53;57.46;100599.59;88977;273;135941;-71
2023/09/19 07:39:53;;;;;;;6.20;5.60;;;;;;;20.54;57.47;100593.11;88766;281;22553;-72
2023/09/19 07:41:55;;;;;;;6.90;5.30;;;;;;;20.56;57.90;100594.01;88431;277;136156;-68
2023/09/19 07:43:57;;;;;;;6.20;5.50;;;;;;;20.64;57.53;100590.95;88523;281;22523;-68
2023/09/19 07:46:03;;;;;;;5.70;5.20;;;;;;;20.71;57.84;100586.09;88468;280;136676;-68
2023/09/19 07:48:06;;;;;;;6.30;5.80;;;;;;;20.80;58.40;100588.80;88476;281;136641;-69
2023/09/19 07:50:09;;;;;;;10.60;5.10;;;;;;;20.89;58.54;100582.89;88558;280;23701;-69
2023/09/19 07:52:12;;;;;;;6.10;5.20;;;;;;;20.97;58.52;100584.37;88693;274;137900;-69
2023/09/19 07:54:15;;;;;;;5.20;4.70;;;;;;;21.04;58.41;100584.39;88726;277;22536;-67
2023/09/19 07:56:20;;;;;;;6.30;5.70;;;;;;;21.08;58.49;100579.34;88364;273;136801;-67
2023/09/19 07:58:22;;;;;;;;;;;;;;;21.14;58.65;100580.73;88755;277;25086;-69
2023/09/19 08:00:24;;;;;;;6.30;5.80;;;;;;;21.22;58.78;100579.50;88342;273;122703;-71
2023/09/19 08:02:28;;;;;;;6.00;4.90;;;;;;;21.31;58.63;100577.52;88446;281;25151;-71
2023/09/19 08:04:33;;;;;;;5.70;5.10;;;;;;;21.36;58.29;100570.45;88516;280;137228;-66
2023/09/19 08:06:38;;;;;;;8.90;5.50;;;;;;;21.41;58.60;100563.45;88561;275;22601;-70
2023/09/19 08:08:39;;;;;;;6.10;5.50;;;;;;;21.52;58.49;100558.56;88355;273;136540;-71
2023/09/19 08:10:45;;;;;;;5.20;4.80;;;;;;;21.62;57.95;100556.05;88502;273;22528;-69
2023/09/19 08:12:48;;;;;;;8.00;5.30;;;;;;;21.69;57.42;100548.86;88367;273;136135;-69
2023/09/19 08:14:51;;;;;;;6.00;4.80;;;;;;;21.76;57.36;100548.48;88264;276;22550;-70
2023/09/19 08:16:56;;;;;;;5.90;4.70;;;;;;;21.82;56.93;100539.57;88381;273;138121;-71
2023/09/19 08:18:59;;;;;;;4.40;4.00;;;;;;;21.90;56.34;100536.01;88571;280;25124;-71
2023/09/19 08:21:01;;;;;;;5.00;4.60;;;;;;;21.99;55.52;100524.14;88514;273;136363;-73
2023/09/19 08:23:05;;;;;;;7.00;4.50;;;;;;;22.09;55.45;100529.75;88454;275;22772;-71
2023/09/19 08:25:07;;;;;;;8.50;4.30;;;;;;;22.19;54.90;100525.70;88389;277;136382;-70
2023/09/19 08:27:10;;;;;;;6.20;4.10;;;;;;;22.28;53.86;100522.95;88485;273;24055;-70
2023/09/19 08:29:12;;;;;;;5.70;4.00;;;;;;;22.38;53.40;100522.70;88405;273;136623;-70
2023/09/19 08:31:14;;;;;;;3.70;3.50;;;;;;;22.49;52.75;100520.32;88498;273;22530;-70
2023/09/19 08:33:16;;;;;;;4.50;4.10;;;;;;;22.60;51.56;100515.38;88276;273;136097;-68
2023/09/19 08:35:19;;;;;;;7.40;3.40;;;;;;;22.68;51.19;100515.14;88461;277;22538;-70
2023/09/19 08:37:21;;;;;;;4.50;3.30;;;;;;;22.75;50.96;100513.16;88516;277;137163;-70
2023/09/19 08:39:26;;;;;;;3.10;2.80;;;;;;;22.81;51.27;100506.99;88360;275;22524;-70
2023/09/19 08:41:27;;;;;;;3.30;3.00;;;;;;;22.89;49.83;100507.30;88339;280;136199;-68
2023/09/19 08:43:29;;;;;;;3.70;2.60;;;;;;;22.97;49.08;100505.86;88367;280;23893;-69
2023/09/19 08:45:32;;;;;;;2.80;2.60;;;;;;;23.04;47.67;100509.48;88363;280;136087;-69
2023/09/19 08:47:43;;;;;;;5.00;2.30;;;;;;;23.10;46.43;100502.41;88594;280;22675;-70
2023/09/19 08:49:59;;;;;;;6.10;2.30;;;;;;;23.19;45.16;100494.52;88347;273;136349;-70
2023/09/19 08:52:35;;;;;;;6.30;2.20;;;;;;;23.27;43.01;100492.64;88604;274;25393;-74
2023/09/19 08:54:40;;;;;;;4.70;1.80;;;;;;;23.38;42.00;100494.67;88486;277;22549;-73
2023/09/19 08:56:43;;;;;;;2.30;1.50;;;;;;;23.45;41.69;100493.65;88832;278;137272;-76
2023/09/19 08:58:54;;;;;;;3.20;2.70;;;;;;;23.50;41.22;100491.15;88527;275;22533;-77
2023/09/19 09:00:58;;;;;;;2.30;1.80;;;;;;;23.54;41.07;100487.45;88294;281;137130;-78
2023/09/19 09:03:02;;;;;;;1.40;1.30;;;;;;;23.55;40.62;100479.77;88479;281;25402;-78
2023/09/19 09:05:05;;;;;;;2.70;1.50;;;;;;;23.58;40.62;100488.82;88396;282;136957;-76
2023/09/19 09:07:12;;;;;;;7.00;1.80;;;;;;;23.64;40.45;100472.27;88634;280;22520;-77
2023/09/19 09:09:16;;;;;;;3.20;1.40;;;;;;;23.66;40.04;100476.69;89101;280;137416;-77
2023/09/19 09:11:18;;;;;;;4.00;1.90;;;;;;;23.67;40.09;100467.76;88923;282;25360;-75
2023/09/19 09:13:21;;;;;;;1.70;1.40;;;;;;;23.71;39.97;100469.55;88338;280;137433;-77
2023/09/19 09:15:24;;;;;;;4.10;1.80;;;;;;;23.75;40.00;100472.48;88706;281;22538;-77
2023/09/19 09:17:26;;;;;;;2.00;1.80;;;;;;;23.75;39.75;100472.70;88293;274;136389;-79
2023/09/19 09:19:30;;;;;;;3.60;2.10;;;;;;;23.80;39.95;100465.55;88473;277;24939;-75
2023/09/19 09:21:36;;;;;;;4.80;2.50;;;;;;;23.85;39.86;100467.23;88779;279;135976;-76
2023/09/19 09:23:38;;;;;;;46.70;3.10;;;;;;;23.84;39.26;100466.41;88644;278;23775;-73
2023/09/19 09:25:56;;;;;;;3.50;2.10;;;;;;;23.81;39.55;100464.79;88637;280;136180;-79
2023/09/19 09:28:02;;;;;;;8.90;2.60;;;;;;;23.81;39.95;100465.98;89013;273;22551;-78
2023/09/19 09:30:07;;;;;;;2.60;1.60;;;;;;;23.81;39.49;100467.83;88611;273;22533;-76
2023/09/19 09:32:29;;;;;;;2.80;1.70;;;;;;;23.84;39.69;100464.02;89008;273;136104;-76
2023/09/19 09:34:35;;;;;;;3.20;1.40;;;;;;;23.85;39.56;100457.86;89053;273;26252;-78
2023/09/19 09:36:40;;;;;;;2.60;1.70;;;;;;;23.88;39.38;100460.91;88737;273;136157;-76
2023/09/19 09:38:48;;;;;;;1.90;1.80;;;;;;;23.89;39.03;100462.16;88787;274;22650;-76